Time;durP1;ratioP1;P1;durP2;ratioP2;P2;SDS_P1;SDS_P2;PMS_P1;PMS_P2;Temp;Humidity;BMP_temperature;BMP_pressure;BME280_temperature;BME280_humidity;BME280_pressure;Samples;Min_cycle;Max_cycle;Signal;HPM_P1;HPM_P2
2023/12/11 00:02:12;;;;;;;27.23;4.57;;;11.20;99.90;;;;;;5026561;28;20178;-78
2023/12/11 00:04:38;;;;;;;32.93;4.80;;;;;;;;;;5031070;28;20177;-78
2023/12/11 00:07:04;;;;;;;32.20;5.47;;;11.10;99.90;;;;;;5026494;28;20183;-75
2023/12/11 00:09:30;;;;;;;34.80;5.37;;;11.00;99.90;;;;;;5027854;28;20184;-76
2023/12/11 00:11:56;;;;;;;32.93;4.97;;;11.10;99.90;;;;;;5029019;28;20178;-77
2023/12/11 00:14:22;;;;;;;33.93;5.40;;;11.20;99.90;;;;;;5028490;28;20224;-76
2023/12/11 00:16:48;;;;;;;36.87;5.90;;;11.00;99.90;;;;;;5026960;28;20643;-75
2023/12/11 00:19:13;;;;;;;37.70;5.37;;;10.90;99.90;;;;;;5027111;28;20213;-77
2023/12/11 00:21:40;;;;;;;37.90;5.10;;;11.10;99.90;;;;;;5027578;28;20189;-75
2023/12/11 00:24:06;;;;;;;24.67;4.20;;;10.90;99.90;;;;;;5026692;28;20210;-76
2023/12/11 00:26:32;;;;;;;33.67;5.13;;;11.20;99.90;;;;;;5030602;28;20260;-76
2023/12/11 00:28:58;;;;;;;32.30;5.17;;;11.30;99.90;;;;;;5026162;28;20209;-74
2023/12/11 00:31:23;;;;;;;29.97;5.13;;;11.40;99.90;;;;;;5022639;28;20268;-78
2023/12/11 00:33:49;;;;;;;20.90;3.50;;;;;;;;;;5021499;28;20178;-77
2023/12/11 00:36:15;;;;;;;29.03;4.03;;;11.30;99.90;;;;;;5029410;28;20173;-77
2023/12/11 00:38:41;;;;;;;28.23;4.33;;;11.40;99.90;;;;;;5025797;28;21316;-76
2023/12/11 00:41:08;;;;;;;38.67;6.77;;;11.40;99.90;;;;;;5027369;28;20218;-75
2023/12/11 00:43:34;;;;;;;36.27;5.10;;;;;;;;;;5029509;28;20181;-79
2023/12/11 00:46:00;;;;;;;31.90;5.07;;;11.50;99.90;;;;;;5027017;28;20189;-78
2023/12/11 00:48:26;;;;;;;40.47;5.07;;;;;;;;;;5026885;28;20173;-77
2023/12/11 00:50:52;;;;;;;41.27;5.60;;;;;;;;;;5008451;28;20182;-77
2023/12/11 00:53:17;;;;;;;39.23;5.77;;;11.50;99.90;;;;;;5030143;28;20193;-77
2023/12/11 00:55:43;;;;;;;27.13;4.40;;;11.50;99.90;;;;;;5025724;28;20171;-78
2023/12/11 00:58:09;;;;;;;36.70;5.67;;;;;;;;;;5029700;28;20185;-77
2023/12/11 01:00:35;;;;;;;29.17;4.07;;;11.40;99.90;;;;;;5025503;28;20221;-81
2023/12/11 01:03:02;;;;;;;30.13;4.33;;;11.10;99.90;;;;;;5027012;28;20178;-79
2023/12/11 01:05:28;;;;;;;32.33;4.43;;;11.40;99.90;;;;;;5027560;28;20187;-77
2023/12/11 01:07:54;;;;;;;35.33;4.90;;;;;;;;;;5028105;28;20178;-79
2023/12/11 01:10:20;;;;;;;24.63;4.10;;;;;;;;;;5025624;28;20178;-75
2023/12/11 01:12:46;;;;;;;27.67;3.90;;;;;;;;;;5026690;28;20174;-76
2023/12/11 01:15:12;;;;;;;25.03;3.70;;;11.20;99.90;;;;;;5028979;28;20269;-77
2023/12/11 01:17:37;;;;;;;24.23;4.17;;;11.00;99.90;;;;;;5026153;28;20623;-73
2023/12/11 01:20:03;;;;;;;23.40;4.00;;;;;;;;;;5026666;28;20236;-75
2023/12/11 01:22:29;;;;;;;36.00;4.73;;;11.10;99.90;;;;;;5025161;28;20908;-75
2023/12/11 01:24:55;;;;;;;25.63;4.20;;;11.20;99.90;;;;;;5029813;28;20181;-75
2023/12/11 01:27:21;;;;;;;29.73;4.73;;;11.50;99.90;;;;;;5024916;28;20217;-75
2023/12/11 01:29:46;;;;;;;26.60;3.90;;;11.30;99.90;;;;;;5026356;28;20616;-78
2023/12/11 01:32:12;;;;;;;25.10;4.00;;;11.20;99.90;;;;;;5026077;28;20186;-77
2023/12/11 01:34:37;;;;;;;25.47;4.00;;;11.50;99.90;;;;;;5024166;28;20240;-77
2023/12/11 01:37:03;;;;;;;30.63;4.17;;;11.20;99.90;;;;;;5010380;28;20177;-77
2023/12/11 01:39:29;;;;;;;24.20;4.07;;;;;;;;;;5026541;28;20218;-77
2023/12/11 01:41:55;;;;;;;24.33;4.10;;;11.30;99.90;;;;;;5025714;28;20181;-75
2023/12/11 01:44:21;;;;;;;27.30;4.20;;;11.30;99.90;;;;;;5025777;28;20174;-77
2023/12/11 01:46:46;;;;;;;22.07;3.63;;;11.30;99.90;;;;;;5029769;28;20178;-78
2023/12/11 01:49:13;;;;;;;23.60;5.07;;;11.30;99.90;;;;;;5021144;28;20185;-79
2023/12/11 01:51:39;;;;;;;29.90;3.73;;;11.40;99.90;;;;;;5029317;28;20182;-79
2023/12/11 01:54:05;;;;;;;26.43;4.50;;;11.20;99.90;;;;;;5007301;28;20177;-78
2023/12/11 01:56:31;;;;;;;27.70;4.40;;;;;;;;;;5020789;28;20185;-77
2023/12/11 01:58:57;;;;;;;27.20;3.87;;;11.30;99.90;;;;;;5024353;28;20645;-78
2023/12/11 02:01:24;;;;;;;32.53;4.70;;;11.10;99.90;;;;;;5028421;28;20196;-77
2023/12/11 02:03:51;;;;;;;27.40;3.27;;;11.50;99.90;;;;;;5012639;28;20269;-76
2023/12/11 02:06:17;;;;;;;27.40;3.67;;;11.30;99.90;;;;;;5032766;28;20185;-80
2023/12/11 02:08:45;;;;;;;26.67;4.47;;;11.40;99.90;;;;;;5031117;28;20598;-77
2023/12/11 02:11:11;;;;;;;31.03;4.37;;;11.30;99.90;;;;;;5030617;28;20232;-77
2023/12/11 02:13:39;;;;;;;17.77;2.27;;;11.40;99.90;;;;;;5012068;28;20663;-77
2023/12/11 02:16:05;;;;;;;22.47;4.27;;;11.30;99.90;;;;;;5029868;28;20174;-77
2023/12/11 02:18:31;;;;;;;25.53;4.33;;;11.30;99.90;;;;;;5032351;28;20174;-80
2023/12/11 02:20:57;;;;;;;29.93;4.63;;;11.40;99.90;;;;;;5011352;28;20761;-76
2023/12/11 02:23:35;;;;;;;27.47;4.33;;;11.40;99.90;;;;;;5030183;28;20239;-77
2023/12/11 02:26:11;;;;;;;30.17;4.70;;;11.30;99.90;;;;;;4999323;28;20237;-79
2023/12/11 02:28:37;;;;;;;29.90;4.37;;;11.30;99.90;;;;;;5032426;28;20185;-77
2023/12/11 02:31:03;;;;;;;22.07;3.43;;;10.00;99.90;;;;;;5029032;28;20189;-75
2023/12/11 02:33:29;;;;;;;27.90;4.53;;;11.30;99.90;;;;;;5029965;28;20186;-77
2023/12/11 02:35:55;;;;;;;33.23;4.73;;;;;;;;;;5028340;28;20200;-76
2023/12/11 02:38:21;;;;;;;19.63;3.40;;;11.00;99.90;;;;;;5030044;28;20301;-77
2023/12/11 02:40:47;;;;;;;27.30;4.20;;;;;;;;;;5029324;28;20739;-75
2023/12/11 02:43:12;;;;;;;23.13;3.97;;;11.20;99.90;;;;;;5031904;28;20178;-76
2023/12/11 02:45:38;;;;;;;28.10;4.50;;;11.20;99.90;;;;;;5028025;28;20189;-75
2023/12/11 02:48:04;;;;;;;22.87;4.53;;;;;;;;;;5029564;28;20216;-76
2023/12/11 02:50:31;;;;;;;31.10;4.67;;;11.20;99.90;;;;;;5031538;28;20178;-75
2023/12/11 02:52:58;;;;;;;30.20;4.30;;;11.20;99.90;;;;;;5029466;28;20185;-77
2023/12/11 02:55:24;;;;;;;19.77;3.07;;;;;;;;;;5028754;28;20186;-80
2023/12/11 02:57:52;;;;;;;23.73;3.53;;;11.30;99.90;;;;;;5028635;28;20175;-77
2023/12/11 03:00:18;;;;;;;24.67;4.33;;;11.20;99.90;;;;;;5032265;28;20219;-77
2023/12/11 03:02:44;;;;;;;24.40;3.63;;;;;;;;;;5027663;28;20186;-76
2023/12/11 03:05:10;;;;;;;16.67;2.57;;;;;;;;;;5029276;28;20178;-78
2023/12/11 03:07:36;;;;;;;27.00;3.67;;;;;;;;;;5028341;28;20774;-77
2023/12/11 03:10:02;;;;;;;24.53;3.80;;;11.00;99.90;;;;;;5014132;28;20193;-78
2023/12/11 03:12:28;;;;;;;14.97;2.50;;;;;;;;;;5027602;28;20178;-78
2023/12/11 03:14:54;;;;;;;28.87;3.50;;;10.80;99.90;;;;;;5029368;28;20267;-77
2023/12/11 03:17:20;;;;;;;24.00;3.97;;;10.90;99.90;;;;;;5030457;28;20239;-75
2023/12/11 03:19:46;;;;;;;19.33;2.90;;;11.20;99.90;;;;;;5010545;28;20209;-76
2023/12/11 03:22:12;;;;;;;21.90;2.87;;;;;;;;;;5031121;28;20189;-75
2023/12/11 03:24:38;;;;;;;23.83;3.20;;;11.10;99.90;;;;;;5028486;28;20174;-75
2023/12/11 03:27:04;;;;;;;21.97;3.00;;;;;;;;;;5031291;28;20228;-74
2023/12/11 03:29:30;;;;;;;20.13;2.87;;;;;;;;;;5027209;28;20183;-77
2023/12/11 03:31:55;;;;;;;15.97;2.77;;;11.00;99.90;;;;;;5030836;28;20188;-77
2023/12/11 03:34:22;;;;;;;18.07;2.13;;;11.00;99.90;;;;;;5029989;28;20177;-77
2023/12/11 03:36:47;;;;;;;16.60;2.73;;;11.00;99.90;;;;;;5028734;28;20239;-75
2023/12/11 03:39:13;;;;;;;18.93;2.33;;;10.90;99.90;;;;;;5028618;28;20205;-76
2023/12/11 03:41:39;;;;;;;14.53;2.10;;;10.90;99.90;;;;;;5030173;28;20177;-78
2023/12/11 03:44:05;;;;;;;19.60;2.67;;;11.00;99.90;;;;;;5026531;28;21134;-76
2023/12/11 03:46:31;;;;;;;21.20;3.53;;;;;;;;;;5029104;28;20192;-77
2023/12/11 03:48:57;;;;;;;17.03;2.23;;;10.80;99.90;;;;;;5027214;28;20265;-77
2023/12/11 03:51:22;;;;;;;22.87;2.83;;;10.40;99.90;;;;;;5028229;28;20193;-75
2023/12/11 03:53:48;;;;;;;20.93;2.77;;;10.80;99.90;;;;;;5013503;28;20281;-75
2023/12/11 03:56:14;;;;;;;20.37;3.20;;;;;;;;;;5026973;28;20186;-75
2023/12/11 03:58:39;;;;;;;20.03;2.70;;;10.80;99.90;;;;;;5028094;28;20184;-76
2023/12/11 04:01:05;;;;;;;11.97;2.07;;;;;;;;;;5009069;28;20273;-76
2023/12/11 04:03:31;;;;;;;12.27;2.00;;;;;;;;;;5030976;28;20201;-75
2023/12/11 04:05:58;;;;;;;14.97;1.67;;;;;;;;;;5026486;28;20645;-75
2023/12/11 04:08:23;;;;;;;14.93;2.10;;;10.90;99.90;;;;;;5010246;28;20186;-76
2023/12/11 04:10:50;;;;;;;12.67;2.43;;;;;;;;;;5028857;28;20195;-75
2023/12/11 04:13:16;;;;;;;12.23;2.10;;;;;;;;;;5028326;28;20645;-74
2023/12/11 04:15:42;;;;;;;5.50;1.20;;;10.80;99.90;;;;;;5008821;28;20660;-76
2023/12/11 04:18:07;;;;;;;10.43;1.77;;;10.80;99.90;;;;;;5024255;28;20174;-76
2023/12/11 04:20:33;;;;;;;20.63;2.97;;;;;;;;;;5024337;28;20207;-76
2023/12/11 04:22:59;;;;;;;10.47;1.80;;;11.00;99.90;;;;;;5026995;28;20182;-76
2023/12/11 04:25:25;;;;;;;11.80;1.93;;;;;;;;;;5027712;28;20560;-76
2023/12/11 04:27:51;;;;;;;13.03;1.83;;;10.80;99.90;;;;;;5026250;28;20229;-76
2023/12/11 04:30:17;;;;;;;12.90;2.10;;;;;;;;;;5030592;28;20186;-77
2023/12/11 04:32:42;;;;;;;11.97;1.80;;;10.90;99.90;;;;;;5006683;28;20656;-75
2023/12/11 04:35:08;;;;;;;6.87;0.87;;;10.80;99.90;;;;;;5001688;28;20259;-77
2023/12/11 04:37:34;;;;;;;9.97;2.00;;;10.90;99.90;;;;;;5028647;28;21403;-75
2023/12/11 04:39:59;;;;;;;12.67;1.87;;;11.20;99.90;;;;;;5027956;28;20221;-77
2023/12/11 04:42:25;;;;;;;15.10;1.60;;;;;;;;;;5026348;28;20177;-77
2023/12/11 04:44:51;;;;;;;15.57;2.03;;;11.00;99.90;;;;;;5023580;28;20178;-76
2023/12/11 04:47:17;;;;;;;6.47;1.30;;;;;;;;;;5027023;28;20170;-75
2023/12/11 04:49:43;;;;;;;8.77;1.23;;;11.00;99.90;;;;;;5026121;28;20269;-73
2023/12/11 04:52:09;;;;;;;16.60;1.87;;;;;;;;;;5030249;28;20236;-75
2023/12/11 04:54:35;;;;;;;10.77;1.67;;;;;;;;;;5032357;28;20178;-76
2023/12/11 04:57:01;;;;;;;10.83;1.80;;;;;;;;;;5027730;28;20178;-77
2023/12/11 04:59:27;;;;;;;12.13;1.90;;;10.90;99.90;;;;;;5027477;28;20230;-75
2023/12/11 05:01:53;;;;;;;10.03;1.67;;;10.70;99.90;;;;;;5030749;28;20595;-75
2023/12/11 05:04:19;;;;;;;10.97;1.80;;;10.50;99.90;;;;;;5028627;28;20186;-76
2023/12/11 05:06:45;;;;;;;10.80;1.33;;;10.80;99.90;;;;;;5024483;28;20661;-76
2023/12/11 05:09:11;;;;;;;9.50;1.93;;;;;;;;;;5025349;28;20190;-75
2023/12/11 05:11:37;;;;;;;11.07;1.77;;;;;;;;;;5026839;28;20709;-75
2023/12/11 05:14:03;;;;;;;10.57;1.60;;;10.70;99.90;;;;;;5029182;28;20197;-76
2023/12/11 05:16:28;;;;;;;10.00;1.63;;;10.60;99.90;;;;;;5029104;28;20542;-76
2023/12/11 05:18:54;;;;;;;10.00;1.63;;;;;;;;;;5029541;28;20170;-76
2023/12/11 05:21:21;;;;;;;10.83;1.70;;;10.40;99.90;;;;;;5027871;28;20288;-76
2023/12/11 05:23:47;;;;;;;12.73;1.50;;;10.60;99.90;;;;;;5030364;28;20249;-77
2023/12/11 05:26:22;;;;;;;13.17;1.80;;;10.60;99.90;;;;;;5025248;28;20433;-76
2023/12/11 05:28:47;;;;;;;12.30;1.77;;;10.60;99.90;;;;;;5022350;28;20180;-73
2023/12/11 05:31:16;;;;;;;10.47;1.60;;;11.20;99.90;;;;;;5028295;28;20181;-76
2023/12/11 05:33:42;;;;;;;7.43;1.40;;;10.70;99.90;;;;;;5008425;28;20582;-75
2023/12/11 05:36:08;;;;;;;10.43;1.77;;;10.80;99.90;;;;;;5027944;28;20325;-77
2023/12/11 05:38:35;;;;;;;10.33;1.37;;;;;;;;;;5029524;28;20185;-76
2023/12/11 05:41:00;;;;;;;10.53;1.43;;;10.90;99.90;;;;;;5024735;28;20712;-78
2023/12/11 05:43:26;;;;;;;12.67;1.77;;;10.60;99.90;;;;;;5026130;28;20177;-78
2023/12/11 05:45:52;;;;;;;8.67;1.60;;;10.90;99.90;;;;;;5028256;28;20652;-78
2023/12/11 05:48:18;;;;;;;10.40;1.80;;;;;;;;;;5029015;28;20200;-78
2023/12/11 05:50:44;;;;;;;10.33;1.80;;;;;;;;;;5025890;28;20174;-79
2023/12/11 05:53:10;;;;;;;12.47;1.90;;;10.60;99.90;;;;;;5026572;28;20253;-75
2023/12/11 05:55:36;;;;;;;13.23;1.70;;;;;;;;;;5026317;28;20171;-76
2023/12/11 05:58:02;;;;;;;9.83;1.27;;;;;;;;;;5024861;28;20190;-76
2023/12/11 06:00:28;;;;;;;10.57;1.43;;;10.70;99.90;;;;;;5018035;28;20214;-76
2023/12/11 06:02:54;;;;;;;14.50;1.70;;;10.40;99.90;;;;;;5026238;28;20240;-77
2023/12/11 06:05:20;;;;;;;15.10;1.57;;;10.50;99.90;;;;;;5024847;28;20652;-76
2023/12/11 06:07:46;;;;;;;12.43;1.83;;;10.20;99.90;;;;;;5027326;28;20269;-76
2023/12/11 06:10:12;;;;;;;7.70;1.50;;;;;;;;;;5008791;28;20726;-78
2023/12/11 06:12:37;;;;;;;12.37;1.90;;;10.40;99.90;;;;;;5024904;28;20240;-78
2023/12/11 06:15:03;;;;;;;11.83;1.80;;;;;;;;;;5017387;28;20564;-77
2023/12/11 06:17:29;;;;;;;10.77;1.50;;;10.40;99.90;;;;;;5029306;28;20565;-78
2023/12/11 06:19:55;;;;;;;10.03;1.43;;;;;;;;;;5024796;28;20690;-78
2023/12/11 06:22:21;;;;;;;11.23;3.00;;;10.40;99.90;;;;;;5029088;28;20197;-78
2023/12/11 06:24:47;;;;;;;9.63;1.43;;;;;;;;;;5024502;28;20174;-78
2023/12/11 06:27:12;;;;;;;9.27;1.20;;;10.60;99.90;;;;;;5028760;28;20757;-78
2023/12/11 06:29:39;;;;;;;8.00;1.10;;;10.60;99.90;;;;;;5024600;28;20552;-78
2023/12/11 06:32:05;;;;;;;11.03;1.40;;;10.50;99.90;;;;;;5025953;28;20180;-76
2023/12/11 06:34:31;;;;;;;11.70;1.03;;;10.50;99.90;;;;;;5017473;28;20212;-77
2023/12/11 06:36:57;;;;;;;7.97;1.30;;;10.70;99.90;;;;;;5026477;28;20224;-77
2023/12/11 06:39:23;;;;;;;11.07;1.60;;;11.90;99.90;;;;;;5024628;28;20198;-78
2023/12/11 06:41:48;;;;;;;11.00;1.27;;;10.70;99.90;;;;;;5028787;28;20395;-77
2023/12/11 06:44:14;;;;;;;7.67;1.30;;;10.60;99.90;;;;;;5025709;28;20247;-77
2023/12/11 06:46:40;;;;;;;6.20;1.50;;;10.60;99.90;;;;;;5025749;28;20222;-78
2023/12/11 06:49:06;;;;;;;7.83;1.47;;;;;;;;;;5028718;28;20228;-78
2023/12/11 06:51:32;;;;;;;8.07;1.10;;;10.50;99.90;;;;;;5024815;28;20245;-78
2023/12/11 06:54:01;;;;;;;8.83;1.50;;;;;;;;;;5025526;28;20174;-79
2023/12/11 06:56:32;;;;;;;9.43;1.50;;;10.60;99.90;;;;;;5028283;28;20644;-78
2023/12/11 06:58:58;;;;;;;10.27;1.37;;;10.70;99.90;;;;;;5029417;28;20264;-77
2023/12/11 07:01:31;;;;;;;9.07;1.47;;;10.60;99.90;;;;;;5030479;28;20222;-78
2023/12/11 07:03:57;;;;;;;7.07;1.47;;;10.50;99.90;;;;;;5032577;28;20174;-78
2023/12/11 07:06:23;;;;;;;7.27;1.07;;;10.50;99.90;;;;;;5030055;28;20525;-78
2023/12/11 07:08:49;;;;;;;10.37;1.53;;;10.60;99.90;;;;;;5010049;28;20281;-78
2023/12/11 07:11:15;;;;;;;9.00;1.43;;;10.60;99.90;;;;;;5027628;28;20336;-78
2023/12/11 07:13:42;;;;;;;11.33;1.33;;;10.30;99.90;;;;;;5031658;28;20185;-79
2023/12/11 07:16:08;;;;;;;12.23;1.53;;;10.50;99.90;;;;;;5031460;28;20186;-78
2023/12/11 07:18:34;;;;;;;11.27;1.77;;;10.20;99.90;;;;;;5031358;28;20667;-76
2023/12/11 07:21:00;;;;;;;14.70;1.67;;;10.20;99.90;;;;;;5028804;28;20223;-76
2023/12/11 07:23:26;;;;;;;13.43;1.53;;;;;;;;;;5030432;28;20180;-78
2023/12/11 07:25:51;;;;;;;10.33;1.37;;;10.10;99.90;;;;;;5028459;28;20205;-78
2023/12/11 07:28:17;;;;;;;8.67;1.37;;;10.50;99.90;;;;;;5028104;28;20210;-76
2023/12/11 07:30:43;;;;;;;9.10;1.10;;;10.60;99.90;;;;;;5031083;28;20228;-75
2023/12/11 07:33:09;;;;;;;9.43;1.47;;;;;;;;;;5002399;28;20177;-78
2023/12/11 07:35:35;;;;;;;7.93;1.13;;;;;;;;;;5024086;28;20228;-77
2023/12/11 07:38:02;;;;;;;8.30;1.40;;;10.20;99.90;;;;;;5029754;28;20188;-78
2023/12/11 07:40:28;;;;;;;5.13;1.00;;;10.20;99.90;;;;;;5029852;28;20216;-77
2023/12/11 07:42:55;;;;;;;6.20;1.07;;;;;;;;;;5030157;28;20217;-76
2023/12/11 07:45:22;;;;;;;6.83;1.07;;;10.40;99.90;;;;;;5031368;28;20182;-76
2023/12/11 07:47:47;;;;;;;6.23;1.37;;;10.10;99.90;;;;;;5033561;28;20194;-75
2023/12/11 07:50:13;;;;;;;7.13;1.33;;;10.10;99.90;;;;;;5037600;28;20739;-76
2023/12/11 07:52:39;;;;;;;6.07;1.07;;;10.00;99.90;;;;;;5028381;28;20182;-76
2023/12/11 07:55:05;;;;;;;12.00;1.50;;;10.20;99.90;;;;;;5009779;28;20185;-76
2023/12/11 07:57:31;;;;;;;9.23;1.50;;;9.90;99.90;;;;;;5022499;28;20648;-77
2023/12/11 07:59:57;;;;;;;10.20;1.43;;;9.90;99.90;;;;;;5008287;28;20218;-76
2023/12/11 08:02:22;;;;;;;9.50;1.13;;;9.90;99.90;;;;;;5028192;28;20185;-77
2023/12/11 08:04:48;;;;;;;14.13;1.50;;;;;;;;;;5028733;28;20181;-76
2023/12/11 08:07:15;;;;;;;13.73;1.57;;;10.10;99.90;;;;;;5027864;28;20189;-76
2023/12/11 08:09:41;;;;;;;7.07;1.70;;;;;;;;;;5011752;28;20193;-76
2023/12/11 08:12:07;;;;;;;7.87;1.30;;;10.00;99.90;;;;;;5024326;28;20174;-77
2023/12/11 08:14:32;;;;;;;9.10;1.53;;;10.00;99.90;;;;;;5030214;28;20182;-78
2023/12/11 08:16:59;;;;;;;11.13;1.40;;;9.90;99.90;;;;;;5026943;28;20181;-75
2023/12/11 08:19:25;;;;;;;12.87;1.70;;;10.10;99.90;;;;;;5027594;28;20680;-77
2023/12/11 08:21:51;;;;;;;9.80;1.43;;;;;;;;;;5025642;28;20197;-77
2023/12/11 08:24:16;;;;;;;11.07;1.50;;;10.10;99.90;;;;;;5019946;28;20580;-77
2023/12/11 08:26:43;;;;;;;14.23;1.50;;;;;;;;;;5026901;28;20708;-77
2023/12/11 08:29:09;;;;;;;14.70;1.90;;;9.90;99.90;;;;;;5029375;28;20190;-76
2023/12/11 08:31:36;;;;;;;10.17;1.37;;;9.80;99.90;;;;;;5025724;28;20273;-76
2023/12/11 08:34:02;;;;;;;8.73;1.40;;;;;;;;;;5000677;28;20581;-76
2023/12/11 08:36:28;;;;;;;13.93;2.07;;;9.90;99.90;;;;;;5011390;28;20174;-77
2023/12/11 08:38:54;;;;;;;10.60;1.83;;;;;;;;;;5025633;28;20201;-77
2023/12/11 08:41:20;;;;;;;18.40;2.07;;;10.20;99.90;;;;;;5029387;28;20206;-76
2023/12/11 08:43:46;;;;;;;11.73;1.97;;;10.10;99.90;;;;;;5029568;28;20588;-89
2023/12/11 08:46:12;;;;;;;6.87;1.50;;;10.10;99.90;;;;;;5026139;28;20181;-83
2023/12/11 08:48:38;;;;;;;11.27;1.60;;;10.10;99.90;;;;;;5026755;28;20268;-81
2023/12/11 08:51:05;;;;;;;16.17;2.10;;;10.30;99.90;;;;;;5033809;28;20600;-83
2023/12/11 08:53:30;;;;;;;10.07;1.77;;;10.40;99.90;;;;;;5026856;28;20214;-82
2023/12/11 08:55:56;;;;;;;14.97;1.77;;;10.30;99.90;;;;;;5029774;28;20206;-83
2023/12/11 08:58:23;;;;;;;9.17;1.27;;;10.40;99.90;;;;;;5010362;28;20224;-82
2023/12/11 09:00:49;;;;;;;11.37;1.73;;;10.40;99.90;;;;;;5028901;28;20217;-82
2023/12/11 09:03:15;;;;;;;10.70;2.20;;;10.50;99.90;;;;;;5026059;28;20184;-83
2023/12/11 09:05:41;;;;;;;13.80;1.83;;;10.60;99.90;;;;;;5028751;28;20178;-80
2023/12/11 09:08:07;;;;;;;16.43;1.80;;;10.70;99.90;;;;;;5030576;28;20177;-82
2023/12/11 09:10:34;;;;;;;7.70;1.70;;;11.50;99.90;;;;;;5027974;28;20663;-82
2023/12/11 09:13:00;;;;;;;15.37;2.50;;;;;;;;;;5025582;28;20200;-82
2023/12/11 09:15:26;;;;;;;10.70;1.87;;;;;;;;;;5029681;28;20253;-83
2023/12/11 09:17:52;;;;;;;15.33;2.00;;;11.90;99.90;;;;;;5008828;28;20174;-82
2023/12/11 09:20:17;;;;;;;11.10;1.90;;;11.90;99.90;;;;;;5028658;28;20220;-83
2023/12/11 09:22:43;;;;;;;16.30;2.33;;;11.80;99.90;;;;;;5019004;28;20641;-81
2023/12/11 09:25:09;;;;;;;11.27;1.70;;;11.90;99.90;;;;;;5028637;28;20202;-83
2023/12/11 09:27:35;;;;;;;18.83;2.40;;;11.90;99.90;;;;;;5011781;28;20229;-86
2023/12/11 09:30:00;;;;;;;17.10;2.43;;;11.90;99.90;;;;;;5001279;28;21246;-85
2023/12/11 09:32:27;;;;;;;14.63;2.50;;;12.00;99.90;;;;;;5013301;28;20232;-81
2023/12/11 09:34:53;;;;;;;14.17;2.07;;;11.90;99.90;;;;;;5026252;28;20652;-82
2023/12/11 09:37:19;;;;;;;11.87;2.23;;;12.20;99.90;;;;;;5003823;28;20186;-85
2023/12/11 09:39:47;;;;;;;19.13;2.63;;;12.30;99.90;;;;;;5025503;28;20206;-82
2023/12/11 09:42:14;;;;;;;16.27;2.57;;;12.40;99.90;;;;;;5029038;28;20185;-82
2023/12/11 09:44:47;;;;;;;14.37;2.20;;;12.30;99.90;;;;;;5008976;28;20708;-80
2023/12/11 09:47:18;;;;;;;24.03;2.70;;;12.10;99.90;;;;;;5026748;28;20210;-82
2023/12/11 09:49:46;;;;;;;20.33;2.20;;;12.10;99.90;;;;;;5029472;28;20181;-81
2023/12/11 09:52:13;;;;;;;11.70;2.20;;;;;;;;;;5024607;28;20232;-81
2023/12/11 09:54:39;;;;;;;14.10;2.50;;;11.70;99.90;;;;;;5029135;28;20209;-82
2023/12/11 09:57:06;;;;;;;10.03;2.00;;;11.70;99.90;;;;;;5028123;28;20209;-81
2023/12/11 09:59:32;;;;;;;9.07;2.13;;;11.50;99.90;;;;;;5026932;28;20232;-84
2023/12/11 10:01:58;;;;;;;23.50;2.40;;;11.40;99.90;;;;;;5025750;28;20677;-84
2023/12/11 10:04:25;;;;;;;19.00;2.50;;;11.30;99.90;;;;;;5011667;28;20185;-87
2023/12/11 10:06:52;;;;;;;13.00;2.17;;;11.30;99.90;;;;;;5024918;28;20257;-87
2023/12/11 10:09:33;;;;;;;13.00;2.83;;;11.20;99.90;;;;;;5027135;28;20273;-86
2023/12/11 10:12:03;;;;;;;12.57;2.00;;;11.10;99.90;;;;;;5027169;28;20193;-90
2023/12/11 10:14:30;;;;;;;11.63;2.33;;;11.20;99.90;;;;;;5033172;28;20185;-90
2023/12/11 10:17:17;;;;;;;15.50;2.57;;;11.10;99.90;;;;;;5027189;28;20165;-90
2023/12/11 10:19:43;;;;;;;13.63;2.43;;;;;;;;;;5001221;28;20299;-86
2023/12/11 10:22:26;;;;;;;14.83;2.53;;;11.30;99.90;;;;;;5021516;28;20251;-81
2023/12/11 10:24:52;;;;;;;12.27;1.90;;;;;;;;;;5029713;28;20190;-83
2023/12/11 10:27:22;;;;;;;9.73;1.97;;;11.30;99.90;;;;;;5028360;28;20213;-81
2023/12/11 10:29:48;;;;;;;11.73;1.93;;;;;;;;;;5028949;28;20174;-81
2023/12/11 10:32:14;;;;;;;14.17;2.30;;;11.50;99.90;;;;;;5029269;28;20185;-81
2023/12/11 10:34:45;;;;;;;12.47;2.70;;;11.90;99.90;;;;;;5033321;28;20614;-81
2023/12/11 10:37:13;;;;;;;14.10;2.40;;;11.90;99.90;;;;;;5027454;28;20174;-82
2023/12/11 10:39:50;;;;;;;13.83;2.10;;;12.00;99.90;;;;;;5039127;28;20244;-80
2023/12/11 10:42:17;;;;;;;14.60;2.27;;;;;;;;;;5028442;28;20196;-82
2023/12/11 10:44:43;;;;;;;20.03;2.57;;;11.90;99.90;;;;;;5039004;28;20322;-82
2023/12/11 10:47:09;;;;;;;13.00;2.10;;;11.90;99.90;;;;;;5029224;28;20280;-81
2023/12/11 10:49:35;;;;;;;13.97;2.43;;;12.00;99.90;;;;;;5032663;28;20204;-84
2023/12/11 10:52:04;;;;;;;13.00;2.27;;;12.20;99.90;;;;;;5010679;28;20189;-82
2023/12/11 10:54:30;;;;;;;16.20;2.30;;;11.80;99.90;;;;;;5029474;28;20182;-82
2023/12/11 10:56:59;;;;;;;13.70;2.30;;;11.80;99.90;;;;;;5031421;28;20241;-82
2023/12/11 10:59:25;;;;;;;13.57;2.07;;;;;;;;;;5011833;28;20648;-81
2023/12/11 11:01:52;;;;;;;19.33;2.20;;;12.00;99.90;;;;;;5010526;28;20197;-82
2023/12/11 11:04:19;;;;;;;15.17;2.33;;;12.00;99.90;;;;;;5029844;28;20189;-80
2023/12/11 11:07:25;;;;;;;17.67;3.03;;;12.10;99.90;;;;;;5031070;28;20191;-81
2023/12/11 11:09:54;;;;;;;13.30;2.43;;;12.20;99.90;;;;;;5025634;28;20272;-81
2023/12/11 11:12:39;;;;;;;13.70;2.37;;;12.20;99.90;;;;;;5027320;28;20565;-81
2023/12/11 11:15:08;;;;;;;11.47;2.47;;;12.60;99.90;;;;;;5030301;28;20181;-82
2023/12/11 11:18:10;;;;;;;13.93;2.20;;;12.80;99.90;;;;;;5028368;28;20201;-81
2023/12/11 11:20:37;;;;;;;19.90;2.30;;;13.70;1.00;;;;;;5026591;28;20205;-81
2023/12/11 11:23:15;;;;;;;15.47;2.40;;;13.40;1.00;;;;;;5028380;28;20482;-79
2023/12/11 11:25:42;;;;;;;10.07;2.10;;;13.50;1.00;;;;;;5027657;28;20182;-81
2023/12/11 11:28:41;;;;;;;16.40;2.43;;;14.60;1.00;;;;;;5032130;28;20196;-79
2023/12/11 11:31:10;;;;;;;15.95;2.78;;;14.40;99.90;;;;;;5027888;28;20181;-81
2023/12/11 11:33:50;;;;;;;12.35;2.13;;;14.20;99.90;;;;;;5030631;28;20683;-80
2023/12/11 11:36:21;;;;;;;12.50;2.85;;;13.90;99.90;;;;;;5002670;28;20250;-81
2023/12/11 11:38:57;;;;;;;14.73;2.42;;;13.80;57.50;;;;;;5027733;28;20213;-80
2023/12/11 11:41:30;;;;;;;20.10;2.10;;;14.60;1.00;;;;;;5023839;28;20217;-80
2023/12/11 11:44:00;;;;;;;13.88;2.28;;;14.60;1.00;;;;;;5025003;28;20297;-81
2023/12/11 11:46:28;;;;;;;17.35;1.80;;;14.80;1.00;;;;;;5029737;28;20184;-81
2023/12/11 11:48:53;;;;;;;13.05;2.42;;;14.80;1.00;;;;;;5028445;28;20280;-80
2023/12/11 11:51:22;;;;;;;8.57;2.25;;;14.10;1.00;;;;;;5030359;28;20201;-81
2023/12/11 11:53:57;;;;;;;17.90;2.47;;;18.40;1.00;;;;;;5032443;28;20549;-80
2023/12/11 11:56:23;;;;;;;14.77;2.67;;;21.00;1.00;;;;;;5025692;28;20181;-79
2023/12/11 11:58:49;;;;;;;13.25;2.20;;;17.80;1.00;;;;;;5040136;28;20182;-79
2023/12/11 12:01:14;;;;;;;9.02;1.75;;;16.30;99.90;;;;;;5037820;28;20600;-78
2023/12/11 12:03:44;;;;;;;8.80;1.45;;;15.90;1.00;;;;;;5015416;28;20193;-80
2023/12/11 12:06:10;;;;;;;14.40;2.17;;;15.50;1.00;;;;;;5037288;28;20601;-79
2023/12/11 12:08:41;;;;;;;15.68;2.15;;;14.20;99.90;;;;;;5033247;28;20208;-79
2023/12/11 12:11:07;;;;;;;12.00;2.03;;;;;;;;;;5031895;28;20174;-80
2023/12/11 12:13:33;;;;;;;14.38;2.58;;;14.10;1.00;;;;;;5018631;28;20177;-81
2023/12/11 12:15:59;;;;;;;12.85;2.30;;;14.00;99.90;;;;;;5028400;28;20715;-80
2023/12/11 12:18:25;;;;;;;17.23;1.88;;;15.20;73.50;;;;;;5010792;28;20186;-80
2023/12/11 12:21:02;;;;;;;14.38;1.85;;;14.50;1.00;;;;;;5030509;28;20225;-80
2023/12/11 12:23:28;;;;;;;21.67;2.33;;;14.10;1.00;;;;;;5027392;28;20671;-79
2023/12/11 12:25:58;;;;;;;12.07;1.70;;;13.70;1.00;;;;;;5027305;28;20179;-80
2023/12/11 12:28:24;;;;;;;16.40;2.40;;;13.70;99.90;;;;;;5013974;28;20243;-81
2023/12/11 12:30:50;;;;;;;15.50;2.03;;;15.80;99.90;;;;;;5027574;28;20633;-80
2023/12/11 12:33:18;;;;;;;11.40;1.95;;;19.40;1.00;;;;;;5031420;28;20645;-80
2023/12/11 12:35:45;;;;;;;12.63;2.05;;;18.40;26.90;;;;;;5029119;28;20197;-79
2023/12/11 12:38:11;;;;;;;8.18;2.13;;;;;;;;;;5028142;28;20173;-79
2023/12/11 12:40:37;;;;;;;11.80;1.73;;;17.00;1.00;;;;;;5030169;28;20206;-81
2023/12/11 12:43:13;;;;;;;18.83;2.30;;;19.60;1.00;;;;;;5020221;28;20302;-78
2023/12/11 12:45:39;;;;;;;13.68;2.10;;;18.00;1.00;;;;;;5029167;28;20182;-79
2023/12/11 12:48:06;;;;;;;18.58;2.50;;;18.80;1.00;;;;;;5030784;28;20170;-79
2023/12/11 12:50:32;;;;;;;16.52;2.75;;;19.50;1.00;;;;;;5027674;28;20177;-79
2023/12/11 12:53:07;;;;;;;10.43;2.22;;;20.10;1.00;;;;;;5028418;28;20189;-79
2023/12/11 12:55:35;;;;;;;15.20;2.22;;;18.70;1.00;;;;;;5025913;28;20186;-80
2023/12/11 12:58:01;;;;;;;13.07;2.33;;;20.50;1.00;;;;;;5010077;28;20178;-81
2023/12/11 13:00:27;;;;;;;15.38;2.30;;;22.20;1.00;;;;;;5024954;28;20355;-80
2023/12/11 13:02:53;;;;;;;11.85;2.58;;;22.30;99.90;;;;;;5025354;28;20178;-80